Latest Weather Observations for Karratha

IDW60801

Issued at 6:32 am WST Sunday 1 May 2016 (issued every 30 minutes, with the page automatically refreshed every 10 minutes)

About weather observations | Map of weather stations | Latest weather observations for WA | Other Formats
Station Details ID: 004083 Name: KARRATHA AERO Lat: -20.71 Lon: 116.77 Height: 5.3 m
Data from the previous 72 hours. | See also: Recent months at Karratha
Date/Time
WST
Temp
°C
App
Temp
°C
Dew
Point
Rel
Hum
%
Delta-T
°C
Wind Press
QNH
hPa
Press
MSL
hPa
Rain
since 9 am
mm
Dir
 
Spd
km/h
Gust
km/h
Spd
kts
Gust
kts
01/06:30am 23.4 26.2 20.9 86 1.6 ESE 7 7 4 4 1012.8 1012.8 0.0
01/06:00am 23.6 26.1 21.1 86 1.6 SSE 9 11 5 6 1012.8 1012.8 0.0
01/05:30am 23.7 25.8 21.0 85 1.8 S 11 13 6 7 1012.7 1012.7 0.0
01/05:00am 24.1 26.4 20.6 81 2.3 S 9 11 5 6 1012.4 1012.4 0.0
01/04:30am 24.7 28.8 20.8 79 2.6 CALM 0 0 0 0 1012.2 1012.2 0.0
01/04:00am 24.7 29.0 21.2 81 2.3 CALM 0 0 0 0 1011.9 1011.9 0.0
01/03:30am 24.8 28.3 21.9 84 1.9 NE 6 7 3 4 1011.8 1011.8 0.0
01/03:00am 24.5 27.8 21.8 85 1.8 NE 7 7 4 4 1011.8 1011.8 0.0
01/02:30am 24.5 28.5 20.6 79 2.5 CALM 0 0 0 0 1011.8 1011.8 0.0
01/02:00am 24.2 28.1 20.3 79 2.5 CALM 0 0 0 0 1011.8 1011.8 0.0
01/01:30am 24.0 27.9 20.3 80 2.4 CALM 0 0 0 0 1011.9 1011.9 0.0
01/01:00am 23.8 26.7 19.9 79 2.5 E 4 6 2 3 1011.8 1011.8 0.0
01/12:30am 24.0 27.8 20.1 79 2.5 CALM 0 0 0 0 1011.7 1011.7 0.0
01/12:00am 24.2 28.1 20.3 79 2.5 CALM 0 0 0 0 1011.8 1011.8 0.0
 
Date/Time
WST
Temp
°C
App
Temp
°C
Dew
Point
Rel
Hum
%
Delta-T
°C
Wind Press
QNH
hPa
Press
MSL
hPa
Rain
since 9 am
mm
Dir
 
Spd
km/h
Gust
km/h
Spd
kts
Gust
kts
30/11:30pm 24.7 28.5 20.2 76 2.9 CALM 0 0 0 0 1012.1 1012.1 0.0
30/11:00pm 26.4 29.9 21.8 76 3.1 NNW 6 7 3 4 1012.1 1012.1 0.0
30/10:30pm 26.7 30.2 22.1 76 3.1 NNW 7 9 4 5 1012.0 1012.0 0.0
30/10:00pm 26.7 29.7 21.9 75 3.2 N 9 11 5 6 1011.9 1011.9 0.0
30/09:30pm 27.0 30.0 22.0 74 3.4 NNW 9 11 5 6 1012.1 1012.1 0.0
30/09:00pm 27.1 29.6 21.8 73 3.5 NNW 11 13 6 7 1012.1 1012.1 0.0
30/08:30pm 27.1 30.0 21.8 73 3.5 NNW 9 13 5 7 1011.9 1011.9 0.0
30/08:00pm 27.3 30.2 21.8 72 3.7 NNW 9 13 5 7 1011.8 1011.8 0.0
30/07:30pm 27.3 29.8 21.8 72 3.7 NNW 11 15 6 8 1011.6 1011.6 0.0
30/07:00pm 27.5 29.5 21.5 70 4.0 NNW 13 15 7 8 1011.4 1011.4 0.0
30/06:30pm 27.7 30.1 21.5 69 4.1 NNW 11 15 6 8 1011.1 1011.1 0.0
30/06:00pm 28.0 29.5 21.3 67 4.5 NNW 15 20 8 11 1010.7 1010.7 0.0
30/05:30pm 28.6 30.4 21.1 64 5.0 NNW 13 19 7 10 1010.4 1010.4 0.0
30/05:00pm 29.2 30.7 21.2 62 5.3 NNW 15 20 8 11 1010.2 1010.2 0.0
30/04:30pm 29.5 30.6 22.0 64 5.1 NE 19 22 10 12 1009.8 1009.8 0.0
30/04:00pm 29.8 30.9 22.0 63 5.3 NNE 19 24 10 13 1009.8 1009.8 0.0
30/03:30pm 29.9 30.1 21.3 60 5.8 NE 22 26 12 14 1009.8 1009.8 0.0
30/03:00pm 30.8 30.8 21.6 58 6.2 NE 24 30 13 16 1009.9 1009.9 0.0
30/02:30pm 30.3 29.6 21.1 58 6.1 NE 26 32 14 17 1009.8 1009.8 0.0
30/02:00pm 30.0 29.9 21.4 60 5.8 NE 24 30 13 16 1010.1 1010.1 0.0
30/01:30pm 30.3 29.7 20.5 55 6.5 NE 24 30 13 16 1010.4 1010.4 0.0
30/01:00pm 31.1 30.9 21.3 56 6.6 NE 24 30 13 16 1011.1 1011.1 0.0
30/12:30pm 30.4 29.8 21.2 58 6.2 NE 26 32 14 17 1011.3 1011.3 0.0
30/12:00pm 30.3 29.8 20.8 56 6.3 NE 24 30 13 16 1011.7 1011.7 0.0
30/11:30am 29.9 29.2 20.2 56 6.4 NE 24 28 13 15 1012.0 1012.0 0.0
30/11:00am 29.8 29.2 20.6 57 6.1 NE 24 28 13 15 1012.3 1012.3 0.0
30/10:30am 29.7 29.2 20.8 58 5.9 NE 24 28 13 15 1012.6 1012.6 0.0
30/10:00am 29.7 29.1 20.5 57 6.1 NE 24 32 13 17 1012.7 1012.7 0.0
30/09:30am 29.9 29.5 21.0 59 5.9 NE 24 28 13 15 1012.7 1012.7 0.0
30/09:00am 28.8 30.0 22.5 68 4.3 ENE 20 26 11 14 1012.4 1012.4 0.0
30/08:30am 27.5 28.2 21.5 70 4.0 E 20 26 11 14 1012.3 1012.3 0.0
30/08:00am 26.1 26.5 20.7 72 3.5 E 19 24 10 13 1012.2 1012.2 0.0
30/07:30am 24.5 24.6 20.0 76 2.9 E 19 22 10 12 1011.9 1011.9 0.0
30/07:00am 23.3 23.3 19.7 80 2.3 E 19 20 10 11 1011.4 1011.4 0.0
30/06:30am 22.5 22.9 19.1 81 2.2 E 15 17 8 9 1011.3 1011.3 0.0
30/06:00am 22.4 22.8 19.0 81 2.2 E 15 17 8 9 1011.2 1011.2 0.0
30/05:30am 22.8 22.9 19.2 80 2.3 E 17 19 9 10 1011.1 1011.1 0.0
30/05:00am 22.6 22.7 19.2 81 2.2 E 17 19 9 10 1010.8 1010.8 0.0
30/04:30am 22.9 23.7 19.9 83 1.9 E 15 17 8 9 1010.5 1010.5 0.0
30/04:00am 22.3 23.3 19.5 84 1.8 E 13 15 7 8 1010.4 1010.4 0.0
30/03:30am 21.8 23.5 18.6 82 2.0 ESE 7 9 4 5 1010.2 1010.2 0.0
30/03:00am 22.0 23.4 18.6 81 2.1 SE 9 11 5 6 1010.0 1010.0 0.0
30/02:30am 21.8 23.5 18.0 79 2.4 ESE 6 7 3 4 1010.2 1010.2 0.0
30/02:00am 22.2 24.0 18.8 81 2.1 SE 7 11 4 6 1010.1 1010.1 0.0
30/01:30am 22.9 26.1 18.9 78 2.5 CALM 0 4 0 2 1010.1 1010.1 0.0
30/01:00am 25.4 28.2 20.9 76 3.0 WNW 7 9 4 5 1010.1 1010.1 0.0
30/12:30am 25.7 28.1 20.9 75 3.2 WNW 9 11 5 6 1010.3 1010.3 0.0
30/12:00am 26.1 28.3 21.1 74 3.3 NW 11 13 6 7 1010.6 1010.6 0.0
 
Date/Time
WST
Temp
°C
App
Temp
°C
Dew
Point
Rel
Hum
%
Delta-T
°C
Wind Press
QNH
hPa
Press
MSL
hPa
Rain
since 9 am
mm
Dir
 
Spd
km/h
Gust
km/h
Spd
kts
Gust
kts
29/11:30pm 26.2 28.4 20.5 71 3.7 WNW 9 13 5 7 1011.0 1011.0 0.0
29/11:00pm 26.5 28.6 20.1 68 4.2 NW 9 11 5 6 1011.2 1011.2 0.0
29/10:30pm 26.7 27.8 19.6 65 4.6 WNW 13 15 7 8 1011.4 1011.4 0.0
29/10:00pm 27.1 27.1 18.9 61 5.3 W 17 20 9 11 1011.5 1011.5 0.0
29/09:30pm 27.2 26.7 17.9 56 5.9 WNW 17 20 9 11 1011.6 1011.6 0.0
29/09:00pm 27.3 26.8 18.6 59 5.6 W 19 22 10 12 1011.8 1011.8 0.0
29/08:30pm 27.5 26.7 17.9 55 6.1 W 19 22 10 12 1011.7 1011.7 0.0
29/08:00pm 27.4 27.0 18.1 57 5.9 WNW 17 20 9 11 1011.6 1011.6 0.0
29/07:30pm 27.5 27.0 17.9 55 6.1 WNW 17 22 9 12 1011.3 1011.3 0.0
29/07:00pm 27.6 27.3 18.3 57 5.9 WNW 17 22 9 12 1011.0 1011.0 0.0
29/06:30pm 27.8 27.5 18.2 56 6.1 WNW 17 20 9 11 1010.8 1010.8 0.0
29/06:00pm 28.1 27.6 17.9 54 6.5 WNW 17 20 9 11 1010.5 1010.5 0.0
29/05:30pm 29.2 28.7 17.7 50 7.3 WNW 17 20 9 11 1010.3 1010.3 0.0
29/05:00pm 29.9 29.1 16.0 43 8.6 NW 15 20 8 11 1010.0 1010.0 0.0
29/04:30pm 30.3 29.3 16.7 44 8.5 NNW 17 20 9 11 1009.9 1009.9 0.0
29/04:00pm 30.2 29.0 16.2 42 8.7 NNW 17 22 9 12 1009.8 1009.8 0.0
29/03:30pm 30.6 28.7 14.3 37 9.9 NNW 17 20 9 11 1009.6 1009.6 0.0
29/03:00pm 31.1 30.0 16.3 41 9.3 NNW 17 24 9 13 1009.7 1009.7 0.0
29/02:30pm 31.4 31.0 18.0 44 8.6 NNE 17 22 9 12 1009.8 1009.8 0.0
29/02:00pm 31.1 29.0 15.1 38 9.8 NE 20 24 11 13 1009.8 1009.8 0.0
29/01:30pm 32.0 29.5 14.2 34 10.8 NE 20 24 11 13 1009.9 1009.9 0.0
29/01:00pm 31.6 29.0 13.8 34 10.8 NNE 20 26 11 14 1009.9 1009.9 0.0
29/12:30pm 31.6 28.2 12.4 31 11.4 NNE 22 28 12 15 1010.2 1010.2 0.0
29/12:00pm 30.9 28.1 13.2 34 10.6 NE 20 26 11 14 1010.9 1010.9 0.0
29/11:30am 31.6 29.1 12.4 31 11.4 NE 17 22 9 12 1011.2 1011.2 0.0
29/11:00am 31.3 29.1 12.2 31 11.3 NE 15 20 8 11 1011.4 1011.4 0.0
29/10:30am 30.5 28.7 11.0 30 11.2 NE 11 17 6 9 1011.8 1011.8 0.0
29/10:00am 30.5 28.9 11.5 31 11.0 E 11 13 6 7 1012.1 1012.1 0.0
29/09:30am 30.5 29.6 10.5 29 11.4 ENE 6 11 3 6 1012.1 1012.1 0.0
29/09:00am 28.7 27.7 8.9 29 10.9 SW 4 7 2 4 1012.1 1012.1 0.0
29/08:30am 27.8 26.4 9.6 32 10.1 WSW 7 9 4 5 1012.0 1012.0 0.0
29/08:00am 24.7 23.1 10.2 40 8.0 WSW 9 13 5 7 1011.6 1011.6 0.0
29/07:30am 23.5 21.9 10.2 43 7.3 WSW 9 11 5 6 1011.7 1011.7 0.0
29/07:00am 23.3 21.8 10.7 45 7.0 WSW 9 11 5 6 1011.3 1011.3 0.0
29/06:30am 23.7 22.1 11.4 46 6.9 WSW 11 13 6 7 1011.1 1011.1 0.0
29/06:00am 24.3 22.6 12.3 47 6.9 WSW 13 15 7 8 1011.0 1011.0 0.0
29/05:30am 24.5 22.9 12.8 48 6.8 WSW 13 17 7 9 1010.8 1010.8 0.0
29/05:00am 24.5 22.1 12.5 47 6.9 W 17 19 9 10 1010.6 1010.6 0.0
29/04:30am 24.7 23.5 13.9 51 6.4 W 13 15 7 8 1010.4 1010.4 0.0
29/04:00am 24.7 23.2 13.0 48 6.8 WSW 13 17 7 9 1010.1 1010.1 0.0
29/03:30am 24.8 22.6 12.1 45 7.3 WSW 15 19 8 10 1010.1 1010.1 0.0
29/03:00am 24.8 22.6 12.1 45 7.3 WSW 15 17 8 9 1010.1 1010.1 0.0
29/02:30am 24.9 23.4 11.8 44 7.4 W 11 13 6 7 1009.9 1009.9 0.0
29/02:00am 24.5 22.0 11.1 43 7.5 WSW 15 17 8 9 1009.9 1009.9 0.0
29/01:30am 24.8 22.3 11.0 42 7.7 WSW 15 19 8 10 1010.0 1010.0 0.0
29/01:00am 25.0 22.2 11.2 42 7.8 WSW 17 19 9 10 1010.3 1010.3 0.0
29/12:30am 25.0 22.2 11.2 42 7.8 WSW 17 20 9 11 1010.5 1010.5 0.0
29/12:00am 25.4 22.0 10.4 39 8.4 WSW 19 22 10 12 1010.7 1010.7 0.0
 
Date/Time
WST
Temp
°C
App
Temp
°C
Dew
Point
Rel
Hum
%
Delta-T
°C
Wind Press
QNH
hPa
Press
MSL
hPa
Rain
since 9 am
mm
Dir
 
Spd
km/h
Gust
km/h
Spd
kts
Gust
kts
28/11:30pm 25.9 22.0 10.9 39 8.4 WSW 22 26 12 14 1010.9 1010.9 0.0
28/11:00pm 26.1 23.0 11.5 40 8.3 WSW 19 20 10 11 1010.9 1010.9 0.0
28/10:30pm 26.5 23.1 10.6 37 8.9 WSW 19 22 10 12 1010.9 1010.9 0.0
28/10:00pm 27.2 23.1 10.0 34 9.6 WSW 22 26 12 14 1011.1 1011.1 0.0
28/09:30pm 27.3 24.1 11.3 37 9.1 WSW 19 22 10 12 1011.2 1011.2 0.0
28/09:00pm 28.0 25.3 12.8 39 8.9 WSW 19 24 10 13 1011.0 1011.0 0.0
28/08:30pm 28.3 26.1 12.2 37 9.4 WSW 15 17 8 9 1011.0 1011.0 0.0
28/08:00pm 28.8 26.0 11.4 34 10.0 WSW 17 20 9 11 1010.8 1010.8 0.0
28/07:30pm 29.2 26.5 14.6 41 8.8 WSW 22 28 12 15 1010.3 1010.3 0.0
28/07:00pm 29.1 28.3 20.8 61 5.5 W 26 30 14 16 1010.0 1010.0 0.0
28/06:30pm 29.1 28.5 20.5 59 5.7 W 24 30 13 16 1009.7 1009.7 0.0
28/06:00pm 29.2 27.6 20.1 58 6.0 W 28 35 15 19 1009.5 1009.5 0.0
28/05:30pm 30.0 27.2 19.1 52 7.1 W 32 39 17 21 1009.3 1009.3 0.0
28/05:00pm 30.8 28.2 19.8 52 7.2 W 33 43 18 23 1009.0 1009.0 0.0
28/04:30pm 31.4 28.4 18.7 46 8.2 W 32 37 17 20 1008.9 1008.9 0.0
28/04:00pm 31.4 28.8 20.0 50 7.5 W 33 43 18 23 1008.9 1008.9 0.0
28/03:30pm 32.0 29.6 19.9 48 8.0 W 32 37 17 20 1008.9 1008.9 0.0
28/03:00pm 32.0 29.4 17.9 43 9.1 WNW 28 35 15 19 1008.9 1008.9 0.0
28/02:30pm 31.9 30.0 18.5 45 8.7 WNW 26 33 14 18 1009.1 1009.1 0.0
28/02:00pm 32.5 30.4 17.2 40 9.8 WNW 24 32 13 17 1009.3 1009.3 0.0
28/01:30pm 32.0 30.0 17.5 42 9.3 WNW 24 30 13 16 1009.5 1009.5 0.0
28/01:00pm 32.5 30.8 17.2 40 9.8 WNW 22 28 12 15 1010.0 1010.0 0.0
28/12:30pm 32.2 30.8 16.9 40 9.7 NW 20 24 11 13 1010.2 1010.2 0.0
28/12:00pm 32.3 30.6 15.7 36 10.4 WNW 19 24 10 13 1010.8 1010.8 0.0
28/11:30am 32.4 29.6 13.1 31 11.6 WNW 20 24 11 13 1011.3 1011.3 0.0
28/11:00am 32.0 30.4 12.8 31 11.4 W 13 19 7 10 1011.8 1011.8 0.0
28/10:30am 31.6 29.5 12.4 31 11.4 W 15 20 8 11 1012.1 1012.1 0.0
28/10:00am 30.5 28.7 13.3 35 10.3 W 15 17 8 9 1012.3 1012.3 0.0
28/09:30am 29.8 29.0 14.0 38 9.5 W 11 17 6 9 1012.6 1012.6 0.0
28/09:00am 28.7 27.9 14.1 40 8.8 WSW 11 15 6 8 1012.6 1012.6 0.0
28/08:30am 27.6 26.7 14.9 45 7.7 WSW 13 15 7 8 1012.5 1012.5 0.0
28/08:00am 26.8 26.1 15.5 50 6.9 WSW 13 15 7 8 1012.2 1012.2 0.0
28/07:30am 25.8 26.1 16.9 58 5.5 WSW 11 13 6 7 1011.8 1011.8 0.0
28/07:00am 24.5 24.3 16.7 61 4.8 WSW 13 15 7 8 1011.5 1011.5 0.0

Other Formats:

Comma delimited format used in spreadsheet applications
http://www.bom.gov.au/fwo/IDW60801/IDW60801.95307.axf

JavaScript Object Notation format (JSON) in row-major order
http://www.bom.gov.au/fwo/IDW60801/IDW60801.95307.json